createdAt,value
2018-09-06T00:00:31.246Z,59.93
2018-09-06T00:01:31.312Z,59.94
2018-09-06T00:02:31.600Z,59.91
2018-09-06T00:03:31.350Z,59.96
2018-09-06T00:04:31.959Z,59.95
2018-09-06T00:05:31.361Z,59.94
2018-09-06T00:06:31.524Z,59.94
2018-09-06T00:07:31.268Z,59.95
2018-09-06T00:08:31.495Z,59.93
2018-09-06T00:09:31.328Z,59.95
2018-09-06T00:10:31.468Z,59.93
2018-09-06T00:11:31.320Z,59.94
2018-09-06T00:12:31.368Z,59.99
2018-09-06T00:13:31.637Z,59.92
2018-09-06T00:14:31.592Z,59.93
2018-09-06T00:15:31.346Z,59.97
2018-09-06T00:16:31.588Z,59.97
2018-09-06T00:17:31.263Z,59.94
2018-09-06T00:18:31.577Z,59.93
2018-09-06T00:19:31.359Z,59.93
2018-09-06T00:20:31.664Z,59.92
2018-09-06T00:21:31.203Z,59.96
2018-09-06T00:22:31.472Z,59.94
2018-09-06T00:23:31.301Z,59.92
2018-09-06T00:24:31.378Z,59.93
2018-09-06T00:25:31.292Z,59.94
2018-09-06T00:26:31.433Z,59.96
2018-09-06T00:27:31.258Z,59.95
2018-09-06T00:28:31.534Z,59.95
2018-09-06T00:29:31.218Z,59.93
2018-09-06T00:30:31.506Z,59.95
2018-09-06T00:31:31.458Z,59.96
2018-09-06T00:32:31.542Z,59.91
2018-09-06T00:33:31.259Z,59.95
2018-09-06T00:34:31.397Z,59.94
2018-09-06T00:35:31.461Z,59.91
2018-09-06T00:36:31.569Z,59.93
2018-09-06T00:37:31.382Z,59.95
2018-09-06T00:38:31.556Z,59.94
2018-09-06T00:39:31.411Z,59.93
2018-09-06T00:40:31.410Z,59.95
2018-09-06T00:41:31.348Z,59.93
2018-09-06T00:42:31.334Z,59.97
2018-09-06T00:43:31.257Z,59.93
2018-09-06T00:44:31.765Z,59.91
2018-09-06T00:45:31.269Z,59.97
2018-09-06T00:46:31.468Z,59.93
2018-09-06T00:47:31.294Z,59.9
2018-09-06T00:48:31.514Z,59.95
2018-09-06T00:49:31.273Z,59.93
2018-09-06T00:50:31.580Z,59.89
2018-09-06T00:51:31.394Z,59.97
2018-09-06T00:52:31.376Z,59.91
2018-09-06T00:53:31.372Z,59.91
2018-09-06T00:54:31.553Z,59.97
2018-09-06T00:55:31.292Z,59.93
2018-09-06T00:56:31.367Z,59.91
2018-09-06T00:57:31.210Z,59.95
2018-09-06T00:58:31.322Z,59.93
2018-09-06T00:59:31.324Z,59.94
2018-09-06T01:00:31.481Z,59.95
2018-09-06T01:01:31.307Z,59.95
2018-09-06T01:02:31.322Z,59.91
2018-09-06T01:03:31.575Z,59.92
2018-09-06T01:04:31.429Z,59.91
2018-09-06T01:05:31.362Z,59.91
2018-09-06T01:06:31.510Z,59.97
2018-09-06T01:07:31.281Z,59.91
2018-09-06T01:08:31.422Z,59.9
2018-09-06T01:09:31.230Z,59.93
2018-09-06T01:10:31.398Z,59.93
2018-09-06T01:11:31.258Z,59.9
2018-09-06T01:12:31.511Z,59.93
2018-09-06T01:13:31.593Z,59.96
2018-09-06T01:14:31.500Z,59.9
2018-09-06T01:15:31.401Z,59.96
2018-09-06T01:16:31.465Z,59.89
2018-09-06T01:17:31.340Z,59.93
2018-09-06T01:18:31.408Z,59.93
2018-09-06T01:19:31.352Z,59.97
2018-09-06T01:20:31.424Z,59.91
2018-09-06T01:21:31.263Z,59.96
2018-09-06T01:22:31.548Z,59.95
2018-09-06T01:23:31.378Z,59.93
2018-09-06T01:24:31.380Z,59.93
2018-09-06T01:25:31.412Z,59.93
2018-09-06T01:26:31.424Z,59.9
2018-09-06T01:27:31.229Z,59.95
2018-09-06T01:28:31.462Z,59.95
2018-09-06T01:29:31.219Z,59.96
2018-09-06T01:30:31.505Z,59.96
2018-09-06T01:31:31.336Z,59.95
2018-09-06T01:32:31.365Z,59.92
2018-09-06T01:33:31.494Z,59.93
2018-09-06T01:34:31.501Z,59.93
2018-09-06T01:35:31.309Z,59.91
2018-09-06T01:36:31.397Z,59.98
2018-09-06T01:37:31.309Z,59.93
2018-09-06T01:38:32.317Z,59.9
2018-09-06T01:39:31.335Z,59.96
2018-09-06T01:40:31.341Z,59.96
2018-09-06T01:41:31.346Z,59.91
2018-09-06T01:42:31.513Z,59.95
2018-09-06T01:43:31.264Z,59.91
2018-09-06T01:44:31.374Z,59.91
2018-09-06T01:45:31.488Z,59.95
2018-09-06T01:46:31.588Z,59.94
2018-09-06T01:47:31.230Z,59.9
2018-09-06T01:48:31.488Z,59.94
2018-09-06T01:49:31.236Z,59.93
2018-09-06T01:50:31.847Z,59.93
2018-09-06T01:51:31.626Z,59.92
2018-09-06T01:52:31.356Z,59.93
2018-09-06T01:53:31.365Z,59.9
2018-09-06T01:54:31.541Z,59.94
2018-09-06T01:55:31.333Z,59.91
2018-09-06T01:56:31.362Z,59.9
2018-09-06T01:57:31.609Z,59.93
2018-09-06T01:58:31.679Z,59.93
2018-09-06T01:59:31.400Z,59.94
2018-09-06T02:00:31.623Z,59.92
2018-09-06T02:01:31.232Z,59.94
2018-09-06T02:02:31.389Z,59.92
2018-09-06T02:03:31.301Z,59.93
2018-09-06T02:04:31.450Z,59.94
2018-09-06T02:05:31.290Z,59.92
2018-09-06T02:06:31.523Z,59.93
2018-09-06T02:07:31.355Z,59.91
2018-09-06T02:08:31.386Z,59.92
2018-09-06T02:09:31.837Z,59.93
2018-09-06T02:10:31.310Z,59.93
2018-09-06T02:11:31.286Z,59.93
2018-09-06T02:12:31.475Z,59.96
2018-09-06T02:13:31.295Z,59.93
2018-09-06T02:14:31.606Z,59.92
2018-09-06T02:15:31.307Z,59.94
2018-09-06T02:16:31.545Z,59.94
2018-09-06T02:17:31.324Z,59.94
2018-09-06T02:18:31.470Z,59.96
2018-09-06T02:19:31.377Z,59.97
2018-09-06T02:20:31.531Z,59.92
2018-09-06T02:21:31.345Z,59.96
2018-09-06T02:22:31.482Z,59.94
2018-09-06T02:23:31.274Z,59.92
2018-09-06T02:24:32.635Z,59.96
2018-09-06T02:25:31.297Z,59.94
2018-09-06T02:26:31.559Z,59.92
2018-09-06T02:27:31.316Z,59.97
2018-09-06T02:28:31.499Z,59.96
2018-09-06T02:29:31.314Z,59.93
2018-09-06T02:30:31.507Z,59.96
2018-09-06T02:31:31.506Z,59.97
2018-09-06T02:32:31.572Z,59.95
2018-09-06T02:33:31.400Z,59.97
2018-09-06T02:34:31.377Z,59.95
2018-09-06T02:35:31.480Z,59.94
2018-09-06T02:36:31.592Z,59.94
2018-09-06T02:37:31.413Z,59.94
2018-09-06T02:38:31.460Z,59.93
2018-09-06T02:39:31.260Z,59.97
2018-09-06T02:40:31.774Z,59.97
2018-09-06T02:41:31.380Z,59.96
2018-09-06T02:42:31.375Z,59.97
2018-09-06T02:43:31.314Z,59.95
2018-09-06T02:44:31.368Z,59.95
2018-09-06T02:45:31.255Z,59.99
2018-09-06T02:46:31.616Z,59.98
2018-09-06T02:47:31.239Z,59.96
2018-09-06T02:48:31.506Z,59.96
2018-09-06T02:49:31.276Z,59.97
2018-09-06T02:50:31.673Z,59.98
2018-09-06T02:51:31.407Z,59.99
2018-09-06T02:52:31.619Z,59.99
2018-09-06T02:53:31.359Z,59.96
2018-09-06T02:54:31.619Z,59.95
2018-09-06T02:55:31.397Z,59.98
2018-09-06T02:56:31.466Z,59.97
2018-09-06T02:57:31.695Z,59.96
2018-09-06T02:58:31.384Z,59.97
2018-09-06T02:59:31.323Z,59.95
2018-09-06T03:00:31.370Z,59.96
2018-09-06T03:01:31.183Z,59.98
2018-09-06T03:02:31.437Z,59.98
2018-09-06T03:03:31.198Z,59.99
2018-09-06T03:04:31.625Z,59.97
2018-09-06T03:05:31.362Z,59.96
2018-09-06T03:06:31.479Z,59.99
2018-09-06T03:07:31.817Z,59.98
2018-09-06T03:08:31.506Z,59.96
2018-09-06T03:09:31.532Z,59.98
2018-09-06T03:10:31.481Z,59.97
2018-09-06T03:11:31.224Z,59.96
2018-09-06T03:12:31.513Z,59.98
2018-09-06T03:13:31.337Z,59.97
2018-09-06T03:14:31.656Z,59.96
2018-09-06T03:15:32.197Z,59.98
2018-09-06T03:16:31.466Z,59.98
2018-09-06T03:17:31.284Z,59.98
2018-09-06T03:18:31.412Z,60
2018-09-06T03:19:31.209Z,60.01
2018-09-06T03:20:31.647Z,59.97
2018-09-06T03:21:31.353Z,59.97
2018-09-06T03:22:31.401Z,59.98
2018-09-06T03:23:31.430Z,59.96
2018-09-06T03:24:31.434Z,60.03
2018-09-06T03:25:31.370Z,60.01
2018-09-06T03:26:31.492Z,59.97
2018-09-06T03:27:31.211Z,60.03
2018-09-06T03:28:31.481Z,59.99
2018-09-06T03:29:31.351Z,59.97
2018-09-06T03:30:31.846Z,59.97
2018-09-06T03:31:31.291Z,59.99
2018-09-06T03:32:31.426Z,59.98
2018-09-06T03:33:31.292Z,60
2018-09-06T03:34:31.500Z,59.98
2018-09-06T03:35:31.611Z,59.98
2018-09-06T03:36:31.477Z,60
2018-09-06T03:37:31.841Z,59.99
2018-09-06T03:38:31.555Z,59.98
2018-09-06T03:39:31.402Z,60.01
2018-09-06T03:40:31.240Z,59.98
2018-09-06T03:41:31.382Z,59.98
2018-09-06T03:42:31.481Z,60.03
2018-09-06T03:43:31.344Z,59.99
2018-09-06T03:44:31.488Z,59.99
2018-09-06T03:45:31.384Z,60.02
2018-09-06T03:46:31.511Z,60.03
2018-09-06T03:47:31.524Z,59.98
2018-09-06T03:48:31.527Z,60.01
2018-09-06T03:49:31.430Z,60
2018-09-06T03:50:32.085Z,59.99
2018-09-06T03:51:31.474Z,59.99
2018-09-06T03:52:31.591Z,59.99
2018-09-06T03:53:31.284Z,60.01
2018-09-06T03:54:31.617Z,60.01
2018-09-06T03:55:31.347Z,59.98
2018-09-06T03:56:31.271Z,59.98
2018-09-06T03:57:31.788Z,60.01
2018-09-06T03:58:31.652Z,60
2018-09-06T03:59:31.293Z,60.01
2018-09-06T04:00:31.632Z,60.04
2018-09-06T04:01:31.355Z,60.01
2018-09-06T04:02:31.530Z,60.01
2018-09-06T04:03:31.381Z,60.03
2018-09-06T04:04:31.303Z,60.04
2018-09-06T04:05:31.302Z,60.02
2018-09-06T04:06:31.441Z,60.03
2018-09-06T04:07:31.444Z,60.06
2018-09-06T04:08:31.389Z,60.04
2018-09-06T04:09:31.293Z,60.05
2018-09-06T04:10:31.384Z,60.05
2018-09-06T04:11:31.258Z,60
2018-09-06T04:12:31.307Z,60.02
2018-09-06T04:13:31.246Z,60.04
2018-09-06T04:14:31.382Z,60.02
2018-09-06T04:15:31.225Z,60.04
2018-09-06T04:16:31.613Z,60.01
2018-09-06T04:17:31.245Z,60.04
2018-09-06T04:18:32.228Z,60.02
2018-09-06T04:19:31.260Z,60.02
2018-09-06T04:20:31.455Z,60.02
2018-09-06T04:21:31.196Z,60.04
2018-09-06T04:22:31.865Z,60.06
2018-09-06T04:23:31.243Z,60.05
2018-09-06T04:24:31.496Z,60.07
2018-09-06T04:25:31.390Z,60.01
2018-09-06T04:26:31.356Z,60.02
2018-09-06T04:27:31.463Z,60.04
2018-09-06T04:28:31.759Z,60.03
2018-09-06T04:29:31.428Z,60.02
2018-09-06T04:30:31.409Z,60.05
2018-09-06T04:31:31.362Z,60.01
2018-09-06T04:32:31.516Z,60.03
2018-09-06T04:33:31.454Z,60.03
2018-09-06T04:34:31.626Z,60.02
2018-09-06T04:35:31.975Z,60.05
2018-09-06T04:36:31.418Z,60.04
2018-09-06T04:37:31.380Z,60.03
2018-09-06T04:38:31.413Z,60
2018-09-06T04:39:31.190Z,60.07
2018-09-06T04:40:31.374Z,60.06
2018-09-06T04:41:31.394Z,60.05
2018-09-06T04:42:31.489Z,60.05
2018-09-06T04:43:31.167Z,60.04
2018-09-06T04:44:31.508Z,60.05
2018-09-06T04:45:31.337Z,60.04
2018-09-06T04:46:31.627Z,60.04
2018-09-06T04:47:31.221Z,60.03
2018-09-06T04:48:31.331Z,60.05
2018-09-06T04:49:31.274Z,60.04
2018-09-06T04:50:31.639Z,60.05
2018-09-06T04:51:31.555Z,60.01
2018-09-06T04:52:31.460Z,60.02
2018-09-06T04:53:31.283Z,60.03
2018-09-06T04:54:31.210Z,60.04
2018-09-06T04:55:31.385Z,60.05
2018-09-06T04:56:31.517Z,60.03
2018-09-06T04:57:31.533Z,60.03
2018-09-06T04:58:32.238Z,60.03
2018-09-06T04:59:31.168Z,60.01
2018-09-06T05:00:31.507Z,60.03
2018-09-06T05:01:31.475Z,60.02
2018-09-06T05:02:31.270Z,60.03
2018-09-06T05:03:31.571Z,60.01
2018-09-06T05:04:31.411Z,60.04
2018-09-06T05:05:31.618Z,60.04
2018-09-06T05:06:31.308Z,60.02
2018-09-06T05:07:31.258Z,60.01
2018-09-06T05:08:31.499Z,60.05
2018-09-06T05:09:31.277Z,60.07
2018-09-06T05:10:31.467Z,60.06
2018-09-06T05:11:31.212Z,60.04
2018-09-06T05:12:31.384Z,60.04
2018-09-06T05:13:31.258Z,60.06
2018-09-06T05:14:31.552Z,60.02
2018-09-06T05:15:31.226Z,60.04
2018-09-06T05:16:31.336Z,60.07
2018-09-06T05:17:31.508Z,60.01
2018-09-06T05:18:31.531Z,60.05
2018-09-06T05:19:31.252Z,60
2018-09-06T05:20:31.576Z,60
2018-09-06T05:21:31.247Z,60.07
2018-09-06T05:22:31.352Z,60.04
2018-09-06T05:23:31.510Z,60.03
2018-09-06T05:24:31.466Z,60.09
2018-09-06T05:25:31.293Z,60.01
2018-09-06T05:26:31.504Z,60.02
2018-09-06T05:27:31.265Z,60.03
2018-09-06T05:28:31.443Z,60.03
2018-09-06T05:29:31.277Z,60.02
2018-09-06T05:30:31.390Z,60.04
2018-09-06T05:31:31.301Z,60.01
2018-09-06T05:32:32.003Z,60.03
2018-09-06T05:33:31.495Z,60.05
2018-09-06T05:34:31.357Z,60.02
2018-09-06T05:35:31.229Z,60.01
2018-09-06T05:36:32.621Z,60.05
2018-09-06T05:37:31.149Z,60.02
2018-09-06T05:38:31.347Z,60.04
2018-09-06T05:39:31.454Z,60.06
2018-09-06T05:40:31.521Z,60.01
2018-09-06T05:41:31.358Z,60
2018-09-06T05:42:31.673Z,60.04
2018-09-06T05:43:31.546Z,60.03
2018-09-06T05:44:31.299Z,59.99
2018-09-06T05:45:31.259Z,60.03
2018-09-06T05:46:31.492Z,60.03
2018-09-06T05:47:32.287Z,60.03
2018-09-06T05:48:31.776Z,60.05
2018-09-06T05:49:31.441Z,60.03
2018-09-06T05:50:31.453Z,60.01
2018-09-06T05:51:31.291Z,60.05
2018-09-06T05:52:31.172Z,60.06
2018-09-06T05:53:32.022Z,60.04
2018-09-06T05:54:31.478Z,60.03
2018-09-06T05:55:31.277Z,60.03
2018-09-06T05:56:31.500Z,60.03
2018-09-06T05:57:31.235Z,60.06
2018-09-06T05:58:31.371Z,60.01
2018-09-06T05:59:32.285Z,59.98
2018-09-06T06:00:31.424Z,60
2018-09-06T06:01:31.226Z,60.01
2018-09-06T06:02:31.596Z,60
2018-09-06T06:03:31.302Z,60.04
2018-09-06T06:04:31.484Z,59.99
2018-09-06T06:05:31.321Z,59.99
2018-09-06T06:06:31.515Z,60.02
2018-09-06T06:07:31.384Z,60.01
2018-09-06T06:08:31.433Z,60.01
2018-09-06T06:09:31.504Z,60.04
2018-09-06T06:10:31.275Z,59.98
2018-09-06T06:11:31.308Z,59.98
2018-09-06T06:12:31.726Z,60.01
2018-09-06T06:13:31.576Z,59.99
2018-09-06T06:14:31.425Z,60.01
2018-09-06T06:15:31.499Z,60.02
2018-09-06T06:16:31.448Z,59.99
2018-09-06T06:17:31.305Z,59.99
2018-09-06T06:18:31.427Z,60.01
2018-09-06T06:19:31.503Z,60.01
2018-09-06T06:20:31.166Z,60
2018-09-06T06:21:31.454Z,59.99
2018-09-06T06:22:31.410Z,60
2018-09-06T06:23:31.544Z,59.98
2018-09-06T06:24:31.372Z,60.01
2018-09-06T06:25:31.391Z,59.98
2018-09-06T06:26:31.411Z,60.01
2018-09-06T06:27:31.279Z,60.01
2018-09-06T06:28:31.363Z,60
2018-09-06T06:29:31.328Z,59.98
2018-09-06T06:30:31.210Z,59.99
2018-09-06T06:31:31.314Z,59.98
2018-09-06T06:32:31.372Z,59.96
2018-09-06T06:33:31.362Z,60.01
2018-09-06T06:34:31.476Z,59.99
2018-09-06T06:35:31.652Z,59.93
2018-09-06T06:36:31.441Z,59.99
2018-09-06T06:37:31.185Z,59.98
2018-09-06T06:38:31.268Z,59.98
2018-09-06T06:39:31.324Z,60.01
2018-09-06T06:40:31.762Z,59.98
2018-09-06T06:41:31.434Z,59.97
2018-09-06T06:42:31.342Z,60.02
2018-09-06T06:43:31.235Z,60.01
2018-09-06T06:44:31.415Z,59.98
2018-09-06T06:45:31.401Z,60
2018-09-06T06:46:31.379Z,59.98
2018-09-06T06:47:31.469Z,60
2018-09-06T06:48:31.357Z,59.98
2018-09-06T06:49:31.336Z,59.98
2018-09-06T06:50:32.348Z,59.98
2018-09-06T06:51:31.403Z,60.01
2018-09-06T06:52:31.452Z,59.96
2018-09-06T06:53:31.488Z,59.98
2018-09-06T06:54:31.451Z,59.99
2018-09-06T06:55:32.098Z,59.99
2018-09-06T06:56:31.605Z,59.96
2018-09-06T06:57:31.317Z,59.99
2018-09-06T06:58:31.721Z,60
2018-09-06T06:59:31.268Z,59.99
2018-09-06T07:00:31.383Z,59.99
2018-09-06T07:01:31.436Z,59.96
2018-09-06T07:02:31.412Z,59.98
2018-09-06T07:03:31.752Z,59.97
2018-09-06T07:04:31.834Z,59.97
2018-09-06T07:05:31.373Z,60
2018-09-06T07:06:31.302Z,60.02
2018-09-06T07:07:31.664Z,59.99
2018-09-06T07:08:31.691Z,60
2018-09-06T07:09:31.361Z,59.98
2018-09-06T07:10:31.374Z,59.94
2018-09-06T07:11:31.637Z,59.96
2018-09-06T07:12:31.166Z,59.96
2018-09-06T07:13:31.263Z,59.96
2018-09-06T07:14:31.305Z,59.99
2018-09-06T07:15:31.572Z,60.01
2018-09-06T07:16:31.393Z,60
2018-09-06T07:17:31.320Z,60
2018-09-06T07:18:32.340Z,59.98
2018-09-06T07:19:31.702Z,59.99
2018-09-06T07:20:31.312Z,59.96
2018-09-06T07:21:31.377Z,59.96
2018-09-06T07:22:31.697Z,59.98
2018-09-06T07:23:31.391Z,59.98
2018-09-06T07:24:31.243Z,60
2018-09-06T07:25:31.480Z,59.98
2018-09-06T07:26:31.886Z,59.98
2018-09-06T07:27:31.273Z,60
2018-09-06T07:28:31.361Z,59.98
2018-09-06T07:29:31.329Z,59.96
2018-09-06T07:30:32.017Z,59.99
2018-09-06T07:31:31.681Z,59.98
2018-09-06T07:32:31.490Z,59.95
2018-09-06T07:33:31.556Z,59.98
2018-09-06T07:34:31.397Z,59.98
2018-09-06T07:35:31.482Z,59.98
2018-09-06T07:36:31.583Z,59.98
2018-09-06T07:37:31.403Z,59.96
2018-09-06T07:38:31.220Z,59.98
2018-09-06T07:39:31.315Z,60.02
2018-09-06T07:40:31.402Z,59.97
2018-09-06T07:41:32.552Z,59.99
2018-09-06T07:42:31.208Z,59.99
2018-09-06T07:43:31.174Z,60.04
2018-09-06T07:44:31.270Z,59.96
2018-09-06T07:45:31.434Z,60
2018-09-06T07:46:31.665Z,59.96
2018-09-06T07:47:31.448Z,59.96
2018-09-06T07:48:31.239Z,59.98
2018-09-06T07:49:31.478Z,59.98
2018-09-06T07:50:31.298Z,59.98
2018-09-06T07:51:32.661Z,59.98
2018-09-06T07:52:31.365Z,59.98
2018-09-06T07:53:31.501Z,59.99
2018-09-06T07:54:31.263Z,60.02
2018-09-06T07:55:31.395Z,59.98
2018-09-06T07:56:31.364Z,59.98
2018-09-06T07:57:31.621Z,59.98
2018-09-06T07:58:31.331Z,59.95
2018-09-06T07:59:31.339Z,59.99
2018-09-06T08:00:31.353Z,59.99
2018-09-06T08:01:31.812Z,59.96
2018-09-06T08:02:31.405Z,59.98
2018-09-06T08:03:31.469Z,60
2018-09-06T08:04:31.429Z,59.95
2018-09-06T08:05:31.940Z,59.96
2018-09-06T08:06:31.239Z,60
2018-09-06T08:07:31.328Z,59.99
2018-09-06T08:08:31.508Z,59.98
2018-09-06T08:09:31.354Z,59.98
2018-09-06T08:10:31.334Z,59.96
2018-09-06T08:11:31.565Z,59.96
2018-09-06T08:12:31.238Z,59.98
2018-09-06T08:13:31.361Z,59.98
2018-09-06T08:14:31.378Z,59.93
2018-09-06T08:15:31.823Z,59.99
2018-09-06T08:16:31.428Z,59.98
2018-09-06T08:17:31.355Z,59.96
2018-09-06T08:18:31.323Z,59.96
2018-09-06T08:19:31.197Z,59.96
2018-09-06T08:20:31.598Z,59.95
2018-09-06T08:21:31.457Z,59.98
2018-09-06T08:22:31.504Z,59.98
2018-09-06T08:23:31.416Z,59.94
2018-09-06T08:24:31.711Z,59.96
2018-09-06T08:25:31.234Z,59.98
2018-09-06T08:26:31.615Z,59.95
2018-09-06T08:27:31.416Z,59.96
2018-09-06T08:28:31.583Z,59.97
2018-09-06T08:29:31.298Z,59.96
2018-09-06T08:30:32.087Z,59.97
2018-09-06T08:31:31.671Z,59.97
2018-09-06T08:32:31.339Z,59.94
2018-09-06T08:33:31.411Z,59.96
2018-09-06T08:34:31.255Z,59.92
2018-09-06T08:35:31.501Z,59.95
2018-09-06T08:36:31.391Z,59.95
2018-09-06T08:37:31.321Z,59.96
2018-09-06T08:38:31.424Z,59.96
2018-09-06T08:39:31.336Z,59.95
2018-09-06T08:40:31.271Z,59.95
2018-09-06T08:41:31.661Z,59.97
2018-09-06T08:42:31.670Z,59.96
2018-09-06T08:43:31.335Z,59.92
2018-09-06T08:44:31.322Z,59.98
2018-09-06T08:45:32.280Z,59.94
2018-09-06T08:46:31.550Z,59.96
2018-09-06T08:47:31.991Z,59.95
2018-09-06T08:48:31.413Z,59.95
2018-09-06T08:49:31.640Z,59.95
2018-09-06T08:50:31.297Z,59.97
2018-09-06T08:51:31.449Z,59.97
2018-09-06T08:52:32.404Z,59.97
2018-09-06T08:53:31.371Z,59.92
2018-09-06T08:54:31.326Z,59.99
2018-09-06T08:55:31.407Z,59.92
2018-09-06T08:56:31.386Z,59.96
2018-09-06T08:57:31.257Z,59.96
2018-09-06T08:58:31.958Z,59.93
2018-09-06T08:59:31.338Z,59.92
2018-09-06T09:00:31.479Z,59.94
2018-09-06T09:01:31.297Z,59.96
2018-09-06T09:02:32.268Z,59.93
2018-09-06T09:03:31.330Z,59.95
2018-09-06T09:04:31.793Z,59.95
2018-09-06T09:05:31.386Z,59.91
2018-09-06T09:06:31.315Z,59.96
2018-09-06T09:07:32.034Z,59.96
2018-09-06T09:08:32.297Z,59.95
2018-09-06T09:09:31.376Z,59.95
2018-09-06T09:10:31.294Z,59.96
2018-09-06T09:11:31.348Z,59.95
2018-09-06T09:12:32.273Z,59.93
2018-09-06T09:13:31.674Z,59.95
2018-09-06T09:14:31.316Z,59.96
2018-09-06T09:15:31.847Z,59.95
2018-09-06T09:16:31.264Z,59.98
2018-09-06T09:17:31.515Z,59.93
2018-09-06T09:18:31.523Z,60
2018-09-06T09:19:31.234Z,59.92
2018-09-06T09:20:31.285Z,59.96
2018-09-06T09:21:32.081Z,59.94
2018-09-06T09:22:31.391Z,59.96
2018-09-06T09:23:31.510Z,59.95
2018-09-06T09:24:31.199Z,59.96
2018-09-06T09:25:31.982Z,59.97
2018-09-06T09:26:31.492Z,59.93
2018-09-06T09:27:31.273Z,59.95
2018-09-06T09:28:31.586Z,59.93
2018-09-06T09:29:31.281Z,59.91
2018-09-06T09:30:31.741Z,59.96
2018-09-06T09:31:31.342Z,59.91
2018-09-06T09:32:31.459Z,59.94
2018-09-06T09:33:31.225Z,59.94
2018-09-06T09:34:31.255Z,59.92
2018-09-06T09:35:31.452Z,59.93
2018-09-06T09:36:31.494Z,59.95
2018-09-06T09:37:31.233Z,59.93
2018-09-06T09:38:31.380Z,59.92
2018-09-06T09:39:31.260Z,59.97
2018-09-06T09:40:31.525Z,59.95
2018-09-06T09:41:31.268Z,59.96
2018-09-06T09:42:31.433Z,59.97
2018-09-06T09:43:31.547Z,59.96
2018-09-06T09:44:31.431Z,59.93
2018-09-06T09:45:31.362Z,59.96
2018-09-06T09:48:31.385Z,59.95
2018-09-06T09:49:31.863Z,59.93
2018-09-06T09:51:31.437Z,59.92
2018-09-06T09:52:31.833Z,59.93
2018-09-06T09:53:31.657Z,59.95
2018-09-06T09:54:31.236Z,59.93
2018-09-06T09:55:31.416Z,59.91
2018-09-06T09:56:31.354Z,59.92
2018-09-06T09:57:31.238Z,59.96
2018-09-06T09:58:31.460Z,59.92
2018-09-06T09:59:31.254Z,59.92
2018-09-06T10:00:31.305Z,59.93
2018-09-06T10:01:31.200Z,59.93
2018-09-06T10:02:31.488Z,59.92
2018-09-06T10:03:31.306Z,59.95
2018-09-06T10:04:31.403Z,59.92
2018-09-06T10:05:31.349Z,59.91
2018-09-06T10:06:32.181Z,59.9
2018-09-06T10:07:31.631Z,59.93
2018-09-06T10:08:31.352Z,59.95
2018-09-06T10:09:31.516Z,59.94
2018-09-06T10:10:31.183Z,59.96
2018-09-06T10:11:31.576Z,59.94
2018-09-06T10:12:31.131Z,59.96
2018-09-06T10:13:31.205Z,59.94
2018-09-06T10:14:31.407Z,59.93
2018-09-06T10:15:31.356Z,59.95
2018-09-06T10:16:31.310Z,59.95
2018-09-06T10:17:31.600Z,59.95
2018-09-06T10:18:31.309Z,59.92
2018-09-06T10:19:31.310Z,59.93
2018-09-06T10:20:31.417Z,59.91
2018-09-06T10:21:31.277Z,59.96
2018-09-06T10:22:31.412Z,59.91
2018-09-06T10:23:31.420Z,59.93
2018-09-06T10:24:31.487Z,59.94
2018-09-06T10:25:31.427Z,59.96
2018-09-06T10:26:31.390Z,59.94
2018-09-06T10:27:31.208Z,59.97
2018-09-06T10:28:31.387Z,59.92
2018-09-06T10:29:31.230Z,59.96
2018-09-06T10:30:31.345Z,59.92
2018-09-06T10:31:31.350Z,59.94
2018-09-06T10:32:31.159Z,59.93
2018-09-06T10:33:31.358Z,59.98
2018-09-06T10:34:31.228Z,59.95
2018-09-06T10:35:31.977Z,59.93
2018-09-06T10:36:31.437Z,59.96
2018-09-06T10:37:31.610Z,59.96
2018-09-06T10:38:31.224Z,59.94
2018-09-06T10:39:31.422Z,59.95
2018-09-06T10:40:31.931Z,59.96
2018-09-06T10:41:31.476Z,59.96
2018-09-06T10:42:31.146Z,59.95
2018-09-06T10:43:31.187Z,59.92
2018-09-06T10:44:31.608Z,59.95
2018-09-06T10:45:31.244Z,59.95
2018-09-06T10:46:31.289Z,59.96
2018-09-06T10:47:31.307Z,59.95
2018-09-06T10:48:31.570Z,59.96
2018-09-06T10:49:31.359Z,59.99
2018-09-06T10:50:31.383Z,59.95
2018-09-06T10:51:31.510Z,59.98
2018-09-06T10:52:31.229Z,59.92
2018-09-06T10:53:31.336Z,59.93
2018-09-06T10:54:31.433Z,59.96
2018-09-06T10:55:31.361Z,59.96
2018-09-06T10:56:31.432Z,59.95
2018-09-06T10:57:31.311Z,59.97
2018-09-06T10:58:31.230Z,59.9
2018-09-06T10:59:31.333Z,59.94
2018-09-06T11:00:31.818Z,59.96
2018-09-06T11:01:31.573Z,59.98
2018-09-06T11:02:31.388Z,59.95
2018-09-06T11:03:31.401Z,59.93
2018-09-06T11:04:32.192Z,59.93
2018-09-06T11:05:31.260Z,59.95
2018-09-06T11:06:31.387Z,59.93
2018-09-06T11:07:31.418Z,59.92
2018-09-06T11:08:31.356Z,59.93
2018-09-06T11:09:31.143Z,59.95
2018-09-06T11:10:31.911Z,59.89
2018-09-06T11:11:31.322Z,59.89
2018-09-06T11:12:31.328Z,59.93
2018-09-06T11:13:31.434Z,59.92
2018-09-06T11:14:31.394Z,59.93
2018-09-06T11:15:31.355Z,59.94
2018-09-06T11:16:31.299Z,59.93
2018-09-06T11:17:31.369Z,59.9
2018-09-06T11:18:31.599Z,59.93
2018-09-06T11:19:31.500Z,59.93
2018-09-06T11:20:31.597Z,59.93
2018-09-06T11:21:32.385Z,59.94
2018-09-06T11:22:35.069Z,59.94
2018-09-06T11:23:31.639Z,59.92
2018-09-06T11:24:31.421Z,59.95
2018-09-06T11:25:31.314Z,59.95
2018-09-06T11:26:31.255Z,59.91
2018-09-06T11:27:32.073Z,59.93
2018-09-06T11:28:31.666Z,59.87
2018-09-06T11:29:31.370Z,59.89
2018-09-06T11:30:31.204Z,59.94
2018-09-06T11:31:31.398Z,59.93
2018-09-06T11:32:31.199Z,59.94
2018-09-06T11:33:31.301Z,59.92
2018-09-06T11:34:31.513Z,59.89
2018-09-06T11:35:31.361Z,59.87
2018-09-06T11:36:31.481Z,59.92
2018-09-06T11:37:31.402Z,59.88
2018-09-06T11:38:31.390Z,59.93
2018-09-06T11:39:31.264Z,59.91
2018-09-06T11:40:32.613Z,59.91
2018-09-06T11:41:31.507Z,59.92
2018-09-06T11:42:31.168Z,59.93
2018-09-06T11:43:31.821Z,59.9
2018-09-06T11:44:31.376Z,59.9
2018-09-06T11:45:31.247Z,59.92
2018-09-06T11:46:31.354Z,59.93
2018-09-06T11:47:31.667Z,59.9
2018-09-06T11:48:31.446Z,59.91
2018-09-06T11:49:31.413Z,59.89
2018-09-06T11:50:31.328Z,59.86
2018-09-06T11:51:31.303Z,59.92
2018-09-06T11:52:31.361Z,59.91
2018-09-06T11:53:31.172Z,59.87
2018-09-06T11:54:31.350Z,59.92
2018-09-06T11:55:31.438Z,59.89
2018-09-06T11:56:31.425Z,59.92
2018-09-06T11:57:31.388Z,59.93
2018-09-06T11:58:31.304Z,59.88
2018-09-06T11:59:31.200Z,59.91
2018-09-06T12:00:31.248Z,59.93
2018-09-06T12:01:31.267Z,59.91
2018-09-06T12:02:31.405Z,59.92
2018-09-06T12:03:31.551Z,59.95
2018-09-06T12:04:34.243Z,59.94
2018-09-06T12:05:31.388Z,59.9
2018-09-06T12:06:31.366Z,59.89
2018-09-06T12:07:31.487Z,59.92
2018-09-06T12:08:31.210Z,59.9
2018-09-06T12:09:31.184Z,59.93
2018-09-06T12:10:31.219Z,59.91
2018-09-06T12:11:31.272Z,59.92
2018-09-06T12:12:31.437Z,59.94
2018-09-06T12:13:31.208Z,59.91
2018-09-06T12:14:31.256Z,59.93
2018-09-06T12:15:31.211Z,59.92
2018-09-06T12:16:31.282Z,59.9
2018-09-06T12:17:31.319Z,59.93
2018-09-06T12:18:31.394Z,59.91
2018-09-06T12:19:31.955Z,59.9
2018-09-06T12:20:31.440Z,59.91
2018-09-06T12:21:31.213Z,59.91
2018-09-06T12:22:31.288Z,59.88
2018-09-06T12:23:31.356Z,59.92
2018-09-06T12:24:31.501Z,59.88
2018-09-06T12:25:31.880Z,59.89
2018-09-06T12:26:31.974Z,59.88
2018-09-06T12:27:31.426Z,59.93
2018-09-06T12:28:31.429Z,59.92
2018-09-06T12:29:31.211Z,59.92
2018-09-06T12:30:31.325Z,60.09
2018-09-06T12:31:31.177Z,60.04
2018-09-06T12:32:31.909Z,60.03
2018-09-06T12:33:32.170Z,60.13
2018-09-06T12:34:31.453Z,60.24
2018-09-06T12:35:31.294Z,60.28
2018-09-06T12:36:31.417Z,60.25
2018-09-06T12:37:31.243Z,60.32
2018-09-06T12:38:31.510Z,60.36
2018-09-06T12:39:31.680Z,60.35
2018-09-06T12:40:31.220Z,60.33
2018-09-06T12:41:31.333Z,60.36
2018-09-06T12:42:31.240Z,60.4
2018-09-06T12:43:31.513Z,60.36
2018-09-06T12:44:31.352Z,60.42
2018-09-06T12:45:31.263Z,60.43
2018-09-06T12:46:31.231Z,60.46
2018-09-06T12:47:31.374Z,60.51
2018-09-06T12:48:31.170Z,60.6
2018-09-06T12:49:31.754Z,60.55
2018-09-06T12:50:31.441Z,60.67
2018-09-06T12:51:31.483Z,60.8
2018-09-06T12:52:31.404Z,60.77
2018-09-06T12:53:31.447Z,60.63
2018-09-06T12:54:31.413Z,60.82
2018-09-06T12:55:31.404Z,60.78
2018-09-06T12:56:31.602Z,60.69
2018-09-06T12:57:31.174Z,60.78
2018-09-06T12:58:31.355Z,60.83
2018-09-06T12:59:31.178Z,60.9